Time;durP1;ratioP1;P1;durP2;ratioP2;P2;SDS_P1;SDS_P2;PMS_P1;PMS_P2;Temp;Humidity;BMP_temperature;BMP_pressure;BME280_temperature;BME280_humidity;BME280_pressure;Samples;Min_cycle;Max_cycle;Signal;HPM_P1;HPM_P2
2022/05/19 00:00:30;;;;;;;3.80;3.42;;;;;;;23.51;49.92;101770.78;5018185;28;20025;-52
2022/05/19 00:02:55;;;;;;;4.95;3.28;;;;;;;23.50;49.92;101763.75;5014229;28;20104;-54
2022/05/19 00:05:21;;;;;;;4.88;3.75;;;;;;;23.50;50.02;101763.75;5014312;28;20523;-58
2022/05/19 00:07:46;;;;;;;4.70;3.58;;;;;;;23.51;50.52;101770.78;5019400;28;20086;-55
2022/05/19 00:10:12;;;;;;;4.28;3.90;;;;;;;23.45;50.58;101753.19;5018998;28;20045;-54
2022/05/19 00:12:37;;;;;;;4.45;3.13;;;;;;;23.49;50.40;101762.88;5035864;28;20381;-53
2022/05/19 00:15:04;;;;;;;3.95;3.65;;;;;;;23.49;50.36;101761.97;5035238;28;20078;-56
2022/05/19 00:17:32;;;;;;;3.85;3.50;;;;;;;23.46;50.60;101754.06;5006579;28;20029;-54
2022/05/19 00:19:58;;;;;;;4.50;3.90;;;;;;;23.48;49.88;101754.94;5017517;28;20044;-56
2022/05/19 00:22:23;;;;;;;3.38;3.13;;;;;;;23.49;50.28;101756.72;5005130;28;20029;-56
2022/05/19 00:24:50;;;;;;;4.20;3.75;;;;;;;23.49;50.25;101751.47;5037520;28;20033;-54
2022/05/19 00:27:16;;;;;;;6.20;3.35;;;;;;;23.44;50.14;101748.78;5006242;28;20038;-56
2022/05/19 00:29:41;;;;;;;3.50;3.20;;;;;;;23.47;49.91;101750.56;5014965;28;20030;-54
2022/05/19 00:32:07;;;;;;;4.45;3.47;;;;;;;23.46;49.98;101746.16;5015083;28;20614;-54
2022/05/19 00:34:32;;;;;;;4.55;3.50;;;;;;;23.48;49.99;101750.59;5013642;28;20033;-57
2022/05/19 00:36:59;;;;;;;7.53;4.32;;;;;;;23.47;49.80;101743.56;5030181;28;20425;-52
2022/05/19 00:39:24;;;;;;;3.20;2.85;;;;;;;23.48;49.85;101744.44;5013851;28;20063;-58
2022/05/19 00:42:43;;;;;;;3.90;3.60;;;;;;;23.47;49.66;101746.19;4998289;28;20078;-56
2022/05/19 00:44:35;;;;;;;3.42;3.22;;;;;;;23.47;49.83;101743.56;5016883;28;20037;-54
2022/05/19 00:47:00;;;;;;;3.75;3.38;;;;;;;23.48;49.71;101744.44;5014003;28;20043;-57
2022/05/19 00:49:36;;;;;;;3.47;3.17;;;;;;;23.46;50.03;101741.81;4997213;28;20116;-56
2022/05/19 00:52:11;;;;;;;9.02;3.75;;;;;;;23.47;50.16;101748.84;5015148;28;20037;-54
2022/05/19 00:54:42;;;;;;;4.47;3.13;;;;;;;23.47;49.88;101747.94;4995184;28;20045;-55
2022/05/19 00:57:26;;;;;;;3.25;2.97;;;;;;;23.47;49.83;101748.84;4998037;28;20041;-54
2022/05/19 01:00:10;;;;;;;5.45;4.32;;;;;;;23.48;49.86;101744.44;5004209;28;20485;-54
2022/05/19 01:02:42;;;;;;;3.22;2.92;;;;;;;23.48;49.81;101749.69;4999370;28;20039;-55
2022/05/19 01:05:15;;;;;;;3.55;3.25;;;;;;;23.44;49.87;101738.28;5013883;28;20040;-54
2022/05/19 01:07:55;;;;;;;3.35;2.83;;;;;;;23.47;50.56;101746.19;4998076;28;20033;-50
2022/05/19 01:10:21;;;;;;;3.88;3.58;;;;;;;23.47;50.11;101742.69;5031688;28;20029;-52
2022/05/19 01:12:48;;;;;;;4.88;3.22;;;;;;;23.47;50.41;101747.94;5014408;28;20470;-54
2022/05/19 01:15:14;;;;;;;4.60;3.53;;;;;;;23.46;49.51;101741.81;5013686;28;20122;-54
2022/05/19 01:17:40;;;;;;;3.50;3.22;;;;;;;23.44;50.13;101742.63;5012966;28;20368;-55
2022/05/19 01:20:12;;;;;;;3.75;3.45;;;;;;;23.42;50.34;101733.84;4998404;28;20022;-57
2022/05/19 01:22:59;;;;;;;3.88;3.47;;;;;;;23.46;49.75;101740.91;4994190;28;20032;-54
2022/05/19 01:25:41;;;;;;;2.78;2.58;;;;;;;23.45;50.11;101744.41;5013817;28;20044;-58
2022/05/19 01:28:07;;;;;;;3.80;3.42;;;;;;;23.46;50.20;101740.91;5014245;28;20033;-57
2022/05/19 01:30:32;;;;;;;3.60;3.20;;;;;;;23.45;49.49;101740.03;4993573;28;20087;-55
2022/05/19 01:32:58;;;;;;;5.47;4.03;;;;;;;23.45;49.75;101739.16;5002754;28;20048;-52
2022/05/19 01:35:24;;;;;;;4.32;3.20;;;;;;;23.43;50.11;101741.75;5015485;28;20025;-56
2022/05/19 01:37:52;;;;;;;3.70;3.40;;;;;;;23.39;49.98;101728.53;5014261;28;20584;-50
2022/05/19 01:40:43;;;;;;;3.58;3.28;;;;;;;23.44;50.44;101740.91;4998448;28;20030;-55
2022/05/19 01:43:38;;;;;;;5.32;3.75;;;;;;;23.44;49.58;101737.38;5029130;28;20055;-54
2022/05/19 01:46:14;;;;;;;6.40;4.40;;;;;;;23.45;50.05;101734.78;5013106;28;20120;-53
2022/05/19 01:49:12;;;;;;;3.45;3.08;;;;;;;23.45;49.80;101739.16;5012389;28;20040;-53
2022/05/19 01:51:45;;;;;;;3.42;3.08;;;;;;;23.44;49.89;101726.84;4979272;28;20037;-54
2022/05/19 01:54:18;;;;;;;4.35;3.50;;;;;;;23.44;49.43;101727.75;5011117;28;20037;-55
2022/05/19 01:56:56;;;;;;;3.70;3.40;;;;;;;23.45;49.71;101733.88;5016435;28;20075;-56
2022/05/19 01:59:29;;;;;;;3.90;3.60;;;;;;;23.44;49.63;101730.38;4999083;28;20109;-56
2022/05/19 02:02:20;;;;;;;3.17;2.95;;;;;;;23.44;49.74;101730.38;5011225;28;20085;-55
2022/05/19 02:04:52;;;;;;;3.08;2.88;;;;;;;23.44;50.08;101721.59;5031509;28;20136;-55
2022/05/19 02:07:19;;;;;;;3.53;3.22;;;;;;;23.44;50.49;101733.03;5032813;28;20037;-54
2022/05/19 02:09:50;;;;;;;4.00;3.65;;;;;;;23.43;49.79;101732.97;5017540;28;20536;-57
2022/05/19 02:12:15;;;;;;;4.43;3.65;;;;;;;23.44;50.13;101732.13;5015619;28;20072;-55
2022/05/19 02:14:44;;;;;;;3.65;3.40;;;;;;;23.44;50.07;101732.13;5000891;28;20120;-53
2022/05/19 02:17:12;;;;;;;4.30;3.90;;;;;;;23.43;50.17;101730.34;5015602;28;20478;-57
2022/05/19 02:19:45;;;;;;;4.03;2.97;;;;;;;23.43;50.03;101727.72;5005704;28;20037;-55
2022/05/19 02:22:14;;;;;;;3.92;3.53;;;;;;;23.44;49.69;101733.03;4996230;28;20041;-54
2022/05/19 02:24:45;;;;;;;4.00;3.08;;;;;;;23.44;50.46;101735.66;5033451;28;20040;-57
2022/05/19 02:27:41;;;;;;;3.25;3.05;;;;;;;23.43;49.50;101730.34;5000383;28;20076;-51
2022/05/19 02:30:11;;;;;;;4.28;3.33;;;;;;;23.43;49.99;101725.09;5016881;28;20087;-55
2022/05/19 02:32:37;;;;;;;3.55;3.25;;;;;;;23.42;50.03;101723.31;4997767;28;20033;-55
2022/05/19 02:35:04;;;;;;;4.47;3.50;;;;;;;23.42;49.57;101723.31;5016655;28;20600;-55
2022/05/19 02:37:30;;;;;;;4.40;3.42;;;;;;;23.42;50.07;101724.22;4999595;28;20087;-52
2022/05/19 02:39:56;;;;;;;3.72;3.42;;;;;;;23.42;49.33;101723.31;5033844;28;20061;-57
2022/05/19 02:42:22;;;;;;;3.88;3.58;;;;;;;23.42;49.26;101729.50;5016863;28;20033;-57
2022/05/19 02:44:47;;;;;;;3.60;3.20;;;;;;;23.44;50.13;101721.59;5033159;28;20037;-54
2022/05/19 02:47:12;;;;;;;4.13;3.72;;;;;;;23.42;49.20;101728.59;5015522;28;20030;-55
2022/05/19 02:49:38;;;;;;;3.90;3.47;;;;;;;23.42;49.52;101723.31;5016903;28;20041;-56
2022/05/19 02:52:03;;;;;;;3.40;3.10;;;;;;;23.42;49.73;101718.06;5034259;28;20033;-56
2022/05/19 02:54:31;;;;;;;3.50;3.05;;;;;;;23.38;49.92;101706.66;5037952;28;20040;-53
2022/05/19 02:56:56;;;;;;;4.97;3.95;;;;;;;23.42;50.11;101713.72;5033556;28;20053;-54
2022/05/19 02:59:24;;;;;;;3.78;3.25;;;;;;;23.42;49.81;101718.06;4999017;28;20107;-54
2022/05/19 03:01:49;;;;;;;3.05;2.83;;;;;;;23.41;49.66;101713.69;5000570;28;20041;-52
2022/05/19 03:04:14;;;;;;;3.75;3.38;;;;;;;23.43;49.64;101714.56;4999747;28;20438;-54
2022/05/19 03:06:40;;;;;;;3.88;3.42;;;;;;;23.43;49.82;101709.31;5025854;28;20030;-55
2022/05/19 03:09:05;;;;;;;4.05;3.08;;;;;;;23.38;50.03;101706.66;5000098;28;20112;-55
2022/05/19 03:11:33;;;;;;;9.82;3.13;;;;;;;23.42;49.79;101712.81;5000336;28;20033;-53
2022/05/19 03:13:59;;;;;;;3.47;3.28;;;;;;;23.43;49.39;101711.94;5017012;28;20044;-55
2022/05/19 03:16:24;;;;;;;3.05;2.83;;;;;;;23.43;50.01;101706.69;5005719;28;20033;-54
2022/05/19 03:18:49;;;;;;;2.80;2.60;;;;;;;23.41;49.46;101711.03;5023254;28;20060;-53
2022/05/19 03:21:15;;;;;;;3.72;3.53;;;;;;;23.37;50.12;101704.00;4997376;28;20486;-55
2022/05/19 03:23:40;;;;;;;4.05;3.20;;;;;;;23.40;49.74;101704.03;5015240;28;20030;-55
2022/05/19 03:26:06;;;;;;;3.58;3.28;;;;;;;23.41;49.98;101705.78;5033918;28;20045;-55
2022/05/19 03:28:33;;;;;;;4.68;3.55;;;;;;;23.41;49.66;101708.41;5033865;28;20059;-55
2022/05/19 03:30:58;;;;;;;5.45;3.50;;;;;;;23.39;50.23;101704.88;5016062;28;20031;-55
2022/05/19 03:33:24;;;;;;;4.15;3.78;;;;;;;23.42;49.96;101703.19;5014320;28;20025;-54
2022/05/19 03:36:00;;;;;;;4.25;3.22;;;;;;;23.37;49.28;101698.72;5012444;28;20034;-53
2022/05/19 03:38:26;;;;;;;3.80;3.50;;;;;;;23.41;49.73;101705.78;4988541;28;20021;-58
2022/05/19 03:40:55;;;;;;;3.17;2.90;;;;;;;23.42;49.66;101712.81;5016253;28;20069;-53
2022/05/19 03:43:20;;;;;;;3.80;3.50;;;;;;;23.41;49.73;101711.03;5016179;28;20041;-55
2022/05/19 03:45:46;;;;;;;8.57;4.60;;;;;;;23.40;49.92;101706.66;5015523;28;20044;-53
2022/05/19 03:48:11;;;;;;;3.58;3.28;;;;;;;23.41;49.46;101697.91;5016136;28;20057;-52
2022/05/19 03:50:38;;;;;;;2.63;2.42;;;;;;;23.42;50.16;101702.31;5015128;28;20037;-54
2022/05/19 03:53:05;;;;;;;5.10;3.65;;;;;;;23.41;49.48;101705.78;5024512;28;20087;-50
2022/05/19 03:55:33;;;;;;;4.30;3.97;;;;;;;23.41;49.80;101701.44;5022636;28;20069;-51
2022/05/19 03:57:58;;;;;;;3.85;3.55;;;;;;;23.42;49.65;101707.56;5033638;28;20112;-50
2022/05/19 04:00:25;;;;;;;4.47;3.97;;;;;;;23.42;49.73;101702.31;5015846;28;20117;-56
2022/05/19 04:02:50;;;;;;;3.53;3.22;;;;;;;23.41;49.40;101695.28;5033323;28;20470;-54
2022/05/19 04:05:16;;;;;;;6.28;3.72;;;;;;;23.40;49.33;101689.16;5014158;28;20036;-54
2022/05/19 04:07:42;;;;;;;3.42;3.10;;;;;;;23.41;49.44;101697.91;5015092;28;20031;-52
2022/05/19 04:10:08;;;;;;;4.25;3.85;;;;;;;23.42;49.97;101694.41;4999022;28;20041;-52
2022/05/19 04:12:34;;;;;;;6.10;3.70;;;;;;;23.42;49.83;101697.03;5040953;28;20029;-54
2022/05/19 04:15:00;;;;;;;4.15;3.50;;;;;;;23.40;50.02;101698.78;5022690;28;20033;-54
2022/05/19 04:17:25;;;;;;;3.90;3.25;;;;;;;23.41;49.55;101700.53;5051669;28;20033;-53
2022/05/19 04:19:50;;;;;;;3.95;3.38;;;;;;;23.41;49.20;101701.44;5016502;28;20036;-53
2022/05/19 04:22:16;;;;;;;4.13;3.25;;;;;;;23.41;49.65;101705.78;5033385;28;20489;-55
2022/05/19 04:24:42;;;;;;;3.90;3.50;;;;;;;23.35;49.83;101690.84;5024638;28;20037;-53
2022/05/19 04:27:07;;;;;;;3.40;3.08;;;;;;;23.41;49.78;101706.69;5015233;28;20061;-53
2022/05/19 04:29:32;;;;;;;5.50;3.75;;;;;;;23.41;49.89;101711.03;5014438;28;20029;-52
2022/05/19 04:32:00;;;;;;;10.60;3.20;;;;;;;23.40;49.92;101704.91;5023619;28;20371;-53
2022/05/19 04:34:25;;;;;;;5.07;3.95;;;;;;;23.41;49.57;101700.53;5034451;28;20103;-57
2022/05/19 04:36:51;;;;;;;4.05;3.20;;;;;;;23.43;49.88;101709.31;5005725;28;20417;-54
2022/05/19 04:39:16;;;;;;;7.43;4.18;;;;;;;23.43;49.39;101704.06;5016157;28;20033;-54
2022/05/19 04:41:41;;;;;;;4.65;4.00;;;;;;;23.42;49.65;101710.19;4995801;28;20030;-53
2022/05/19 04:44:07;;;;;;;4.32;3.92;;;;;;;23.44;49.63;101711.09;5032869;28;20040;-54
2022/05/19 04:46:32;;;;;;;6.85;3.83;;;;;;;23.44;49.96;101712.00;5014079;28;20116;-55
2022/05/19 04:48:57;;;;;;;3.70;3.40;;;;;;;23.40;49.63;101709.28;5014839;28;20485;-55
2022/05/19 04:51:25;;;;;;;3.28;3.00;;;;;;;23.39;49.43;101699.63;5015636;28;20402;-54
2022/05/19 04:53:50;;;;;;;4.45;3.78;;;;;;;23.44;49.63;101716.34;5027811;28;20043;-55
2022/05/19 04:56:16;;;;;;;3.83;3.45;;;;;;;23.44;49.18;101711.09;5014643;28;20029;-54
2022/05/19 04:58:41;;;;;;;3.50;3.08;;;;;;;23.46;49.46;101719.88;4995229;28;20030;-52
2022/05/19 05:01:08;;;;;;;3.58;3.22;;;;;;;23.45;49.24;101712.84;5004354;28;20075;-56
2022/05/19 05:03:33;;;;;;;4.18;3.78;;;;;;;23.46;49.61;101714.63;5013941;28;20033;-56
2022/05/19 05:05:58;;;;;;;4.07;3.53;;;;;;;23.35;49.60;101696.09;5030584;28;20097;-55
2022/05/19 05:08:24;;;;;;;3.08;2.83;;;;;;;23.45;49.02;101713.75;5029961;28;20042;-56
2022/05/19 05:10:51;;;;;;;4.22;3.83;;;;;;;23.46;49.29;101725.13;4997834;28;20041;-56
2022/05/19 05:13:17;;;;;;;4.55;4.05;;;;;;;23.46;49.75;101725.13;5013888;28;20037;-56
2022/05/19 05:15:45;;;;;;;3.90;3.50;;;;;;;23.46;49.51;101719.88;5030895;28;20022;-54
2022/05/19 05:18:11;;;;;;;3.33;3.05;;;;;;;23.48;49.76;101723.41;5014762;28;20044;-55
2022/05/19 05:20:38;;;;;;;3.72;3.40;;;;;;;23.48;49.13;101728.66;4997913;28;20199;-53
2022/05/19 05:23:03;;;;;;;6.55;3.20;;;;;;;23.47;49.20;101726.91;4998221;28;20034;-55
2022/05/19 05:25:29;;;;;;;6.03;3.38;;;;;;;23.47;49.22;101721.63;5028053;28;20030;-54
2022/05/19 05:27:56;;;;;;;3.50;3.20;;;;;;;23.46;49.79;101720.78;4997300;28;20681;-55
2022/05/19 05:30:22;;;;;;;6.75;3.40;;;;;;;23.49;49.01;101725.16;4997569;28;20053;-50
2022/05/19 05:32:47;;;;;;;3.83;3.53;;;;;;;23.47;49.07;101721.63;4997761;28;20489;-52
2022/05/19 05:35:13;;;;;;;5.68;4.30;;;;;;;23.47;49.88;101722.53;5031064;28;20471;-56
2022/05/19 05:37:40;;;;;;;3.20;3.00;;;;;;;23.47;49.59;101727.78;5031727;28;20469;-56
2022/05/19 05:40:10;;;;;;;10.15;3.75;;;;;;;23.47;49.08;101721.63;5014772;28;20772;-55
2022/05/19 05:42:36;;;;;;;4.38;3.97;;;;;;;23.47;49.31;101724.28;5016454;28;20049;-55
2022/05/19 05:45:02;;;;;;;5.22;3.38;;;;;;;23.48;49.12;101723.41;5002051;28;20042;-53
2022/05/19 05:47:28;;;;;;;7.10;3.33;;;;;;;23.48;49.08;101726.03;5014992;28;20112;-56
2022/05/19 05:49:53;;;;;;;4.10;3.17;;;;;;;23.49;49.24;101719.91;4993213;28;20042;-53
2022/05/19 05:52:19;;;;;;;4.03;3.63;;;;;;;23.48;49.34;101723.41;5017659;28;20018;-53
2022/05/19 05:54:44;;;;;;;6.25;3.70;;;;;;;23.49;49.69;101719.91;5018200;28;20033;-54
2022/05/19 05:57:10;;;;;;;3.88;3.47;;;;;;;23.47;49.60;101711.13;5034515;28;20104;-53
2022/05/19 05:59:36;;;;;;;5.72;3.10;;;;;;;23.51;49.23;101718.19;5013640;28;20034;-54
2022/05/19 06:02:01;;;;;;;3.17;2.95;;;;;;;23.46;49.64;101709.34;5031704;28;20033;-49
2022/05/19 06:04:26;;;;;;;6.80;3.42;;;;;;;23.43;49.41;101709.31;5013212;28;20080;-48
2022/05/19 06:06:52;;;;;;;4.57;3.58;;;;;;;23.52;49.51;101719.09;5015509;28;20066;-52
2022/05/19 06:09:17;;;;;;;4.82;3.40;;;;;;;23.52;49.47;101722.59;5017055;28;20059;-47
2022/05/19 06:11:44;;;;;;;3.90;3.10;;;;;;;23.50;49.59;101716.41;5016749;28;20021;-53
2022/05/19 06:14:10;;;;;;;3.80;3.50;;;;;;;23.50;49.31;101721.69;5010330;28;20121;-54
2022/05/19 06:16:36;;;;;;;3.67;3.42;;;;;;;23.52;49.29;101719.94;5018301;28;20040;-53
2022/05/19 06:19:01;;;;;;;4.60;3.13;;;;;;;23.51;48.90;101718.19;5034480;28;20030;-54
2022/05/19 06:21:27;;;;;;;3.17;2.95;;;;;;;23.52;49.65;101725.22;5019814;28;20035;-49
2022/05/19 06:23:52;;;;;;;6.80;3.72;;;;;;;23.52;49.42;101725.22;5014117;28;20103;-52
2022/05/19 06:26:17;;;;;;;4.88;4.47;;;;;;;23.51;49.86;101712.94;5024212;28;20123;-56
2022/05/19 06:28:43;;;;;;;3.35;3.10;;;;;;;23.53;49.46;101715.59;5013561;28;20064;-51
2022/05/19 06:31:08;;;;;;;4.18;3.53;;;;;;;23.53;49.45;101721.72;4997121;28;20088;-55
2022/05/19 06:33:36;;;;;;;5.68;3.90;;;;;;;23.52;49.27;101713.81;5017222;28;20025;-52
2022/05/19 06:36:04;;;;;;;4.13;3.38;;;;;;;23.52;49.34;101712.06;5017604;28;20474;-55
2022/05/19 06:38:31;;;;;;;4.68;3.58;;;;;;;23.52;49.42;101719.94;4997668;28;20084;-56
2022/05/19 06:42:00;;;;;;;3.58;3.28;;;;;;;23.52;49.44;101704.19;4992923;28;20044;-53
2022/05/19 06:43:42;;;;;;;3.20;3.00;;;;;;;23.52;49.27;101704.19;5034434;28;20041;-55
2022/05/19 06:46:07;;;;;;;6.60;4.15;;;;;;;23.52;49.53;101698.91;5016434;28;20041;-55
2022/05/19 06:48:33;;;;;;;3.33;3.13;;;;;;;23.51;48.98;101691.91;5016884;28;20029;-57
2022/05/19 06:50:58;;;;;;;4.97;4.05;;;;;;;23.53;49.27;101698.06;5034430;28;20052;-54
2022/05/19 06:53:23;;;;;;;7.55;3.60;;;;;;;23.48;49.35;101691.84;5009804;28;20029;-55
2022/05/19 06:55:48;;;;;;;4.13;3.50;;;;;;;23.52;49.36;101688.41;5015988;28;20184;-51
2022/05/19 06:58:14;;;;;;;4.38;4.00;;;;;;;23.53;49.00;101684.91;5015154;28;20056;-55
2022/05/19 07:00:40;;;;;;;4.28;3.67;;;;;;;23.53;48.72;101684.91;5033309;28;20056;-52
2022/05/19 07:03:06;;;;;;;4.22;3.65;;;;;;;23.53;49.42;101684.91;5015908;28;20041;-54
2022/05/19 07:05:36;;;;;;;4.03;3.65;;;;;;;23.53;48.85;101690.16;5031771;28;20086;-54
2022/05/19 07:08:05;;;;;;;4.47;3.67;;;;;;;23.53;48.96;101684.91;5014915;28;20037;-52
2022/05/19 07:10:33;;;;;;;6.80;4.85;;;;;;;23.53;49.26;101687.53;5029962;28;20390;-54
2022/05/19 07:12:59;;;;;;;35.15;8.10;;;;;;;23.54;49.13;101689.31;5010923;28;20414;-56
2022/05/19 07:15:27;;;;;;;22.13;9.15;;;;;;;23.47;49.30;101669.06;5012927;28;20025;-55
2022/05/19 07:17:52;;;;;;;14.95;9.15;;;;;;;23.55;49.31;101683.19;4999857;28;20029;-54
2022/05/19 07:23:02;;;;;;;29.52;10.55;;;;;;;23.57;49.71;101686.72;5010113;28;20031;-56
2022/05/19 07:25:28;;;;;;;22.80;9.45;;;;;;;23.57;49.26;101686.72;5014135;28;20487;-56
2022/05/19 07:27:55;;;;;;;25.98;10.45;;;;;;;23.59;49.24;101690.25;5014488;28;20033;-56
2022/05/19 07:30:24;;;;;;;20.67;10.18;;;;;;;23.58;49.51;101677.97;5014301;28;20389;-54
2022/05/19 07:32:50;;;;;;;22.50;8.52;;;;;;;23.58;49.23;101688.47;5013910;28;20132;-55
2022/05/19 07:35:16;;;;;;;18.45;9.80;;;;;;;23.59;49.59;101681.47;5014491;28;20112;-54
2022/05/19 07:37:41;;;;;;;21.30;8.98;;;;;;;23.59;49.24;101671.84;5012816;28;20033;-55
2022/05/19 07:40:08;;;;;;;19.75;8.40;;;;;;;23.53;49.74;101658.63;5014298;28;20040;-52
2022/05/19 07:42:34;;;;;;;11.15;8.73;;;;;;;23.61;49.77;101672.72;5010892;28;20017;-55
2022/05/19 07:45:05;;;;;;;14.60;8.48;;;;;;;23.61;49.61;101662.22;5012765;28;20340;-55
2022/05/19 07:47:31;;;;;;;20.10;8.82;;;;;;;23.61;49.90;101664.84;5025063;28;20038;-57
2022/05/19 07:49:57;;;;;;;32.13;8.55;;;;;;;23.60;49.71;101660.44;5022624;28;20049;-56
2022/05/19 07:52:25;;;;;;;12.50;7.63;;;;;;;23.61;49.53;101659.59;5017096;28;20026;-53
2022/05/19 07:54:51;;;;;;;26.40;9.55;;;;;;;23.62;49.77;101669.25;5019372;28;20127;-56
2022/05/19 07:57:16;;;;;;;12.95;8.15;;;;;;;23.60;49.55;101665.72;5006519;28;20108;-57
2022/05/19 07:59:42;;;;;;;19.65;8.13;;;;;;;23.62;49.40;101669.25;5032582;28;20031;-51
2022/05/19 08:02:07;;;;;;;14.30;8.52;;;;;;;23.69;49.97;101664.03;4989188;28;20026;-62
2022/05/19 08:04:33;;;;;;;10.27;6.13;;;;;;;23.77;49.32;101657.13;5008829;28;20055;-62
2022/05/19 08:06:59;;;;;;;6.97;4.90;;;;;;;23.78;49.52;101648.34;5018763;28;20033;-58
2022/05/19 08:17:49;;;;;;;;;;;;;;;23.82;48.80;101654.56;5022378;28;20048;-60
2022/05/19 08:20:16;;;;;;;4.67;3.73;;;;;;;23.80;48.64;101662.41;5018024;28;19917;-60
2022/05/19 08:22:41;;;;;;;7.97;3.47;;;;;;;23.82;48.51;101647.53;4997273;28;20060;-60
2022/05/19 08:25:06;;;;;;;7.30;3.90;;;;;;;23.87;47.91;101648.47;5013290;28;20033;-60
2022/05/19 08:27:35;;;;;;;4.85;3.50;;;;;;;23.86;48.46;101646.72;5002317;28;20037;-60
2022/05/19 08:30:00;;;;;;;4.80;4.15;;;;;;;23.82;48.44;101644.88;4998122;28;20025;-61
2022/05/19 08:32:26;;;;;;;11.50;3.75;;;;;;;23.85;47.99;101644.91;5034061;28;20075;-64
2022/05/19 08:34:52;;;;;;;4.55;3.70;;;;;;;23.90;47.81;101648.50;5008191;28;20112;-66
2022/05/19 08:37:17;;;;;;;3.72;3.35;;;;;;;23.92;47.84;101644.16;5000770;28;20025;-65
2022/05/19 08:39:42;;;;;;;6.57;3.33;;;;;;;24.00;47.12;101643.38;4996140;28;20083;-67
2022/05/19 08:42:08;;;;;;;3.92;3.50;;;;;;;23.96;47.06;101642.41;5012253;28;20045;-65
2022/05/19 08:44:41;;;;;;;3.65;3.35;;;;;;;23.95;46.75;101639.78;5015287;28;20064;-65
2022/05/19 08:47:11;;;;;;;3.75;3.25;;;;;;;23.92;46.90;101641.50;5005653;28;20099;-65
2022/05/19 08:49:58;;;;;;;6.57;3.40;;;;;;;23.93;46.55;101638.00;4997913;28;20025;-64
2022/05/19 08:52:28;;;;;;;5.78;3.40;;;;;;;23.89;47.02;101633.59;5008074;28;20025;-65
2022/05/19 08:54:56;;;;;;;3.83;3.00;;;;;;;23.93;46.22;101635.38;5011724;28;20040;-63
2022/05/19 08:57:27;;;;;;;3.42;2.95;;;;;;;24.05;46.03;101626.75;4997786;28;20045;-65
2022/05/19 09:00:04;;;;;;;3.08;2.88;;;;;;;24.00;46.32;101638.09;5010653;28;20406;-64
2022/05/19 09:02:43;;;;;;;12.10;3.03;;;;;;;23.93;46.57;101632.75;5012517;28;20037;-65
2022/05/19 09:05:31;;;;;;;4.18;3.10;;;;;;;23.87;46.67;101632.69;5011079;28;20044;-65
2022/05/19 09:08:25;;;;;;;5.78;3.42;;;;;;;23.84;46.48;101622.13;5029551;28;20474;-65
2022/05/19 09:10:53;;;;;;;2.47;2.28;;;;;;;23.89;45.98;101624.81;5010327;28;20068;-66
2022/05/19 09:13:56;;;;;;;3.20;3.00;;;;;;;23.90;46.07;101621.31;4996697;28;20470;-65
2022/05/19 09:16:24;;;;;;;11.73;3.10;;;;;;;23.90;46.51;101613.41;5016907;28;20111;-65
2022/05/19 09:19:13;;;;;;;5.65;2.65;;;;;;;24.02;45.03;101610.06;4998031;28;20446;-65
2022/05/19 09:21:42;;;;;;;6.07;2.92;;;;;;;23.99;45.66;101599.47;5045309;28;20194;-65
2022/05/19 09:24:09;;;;;;;2.55;2.35;;;;;;;23.99;45.45;101599.47;5011612;28;20030;-65
2022/05/19 09:26:52;;;;;;;3.08;2.83;;;;;;;24.03;45.42;101606.56;5013466;28;20358;-65
2022/05/19 09:29:21;;;;;;;6.85;2.80;;;;;;;24.01;46.02;101603.03;5011107;28;20069;-65
2022/05/19 09:31:54;;;;;;;3.58;3.10;;;;;;;23.98;45.79;101592.44;5011589;28;20037;-65
2022/05/19 09:34:28;;;;;;;4.22;3.35;;;;;;;24.02;45.87;101596.91;5014153;28;20494;-65
2022/05/19 09:37:03;;;;;;;2.70;2.50;;;;;;;24.11;45.52;101589.09;5024922;28;20075;-66
2022/05/19 09:39:33;;;;;;;2.80;2.58;;;;;;;24.06;45.54;101581.13;5032729;28;20061;-65
2022/05/19 09:42:13;;;;;;;2.90;2.70;;;;;;;24.11;44.90;101589.09;4998570;28;20042;-65
2022/05/19 09:44:50;;;;;;;3.45;2.95;;;;;;;24.10;44.55;101586.41;5012606;28;20043;-65
2022/05/19 09:47:24;;;;;;;5.72;2.88;;;;;;;24.08;45.54;101594.31;5009863;28;20090;-65
2022/05/19 09:50:02;;;;;;;6.97;2.30;;;;;;;24.11;45.41;101593.44;5017607;28;20428;-65
2022/05/19 09:52:31;;;;;;;2.95;2.65;;;;;;;24.11;45.08;101594.34;5012531;28;20037;-65
2022/05/19 09:55:01;;;;;;;3.60;2.83;;;;;;;24.10;45.51;101591.69;4999961;28;20532;-65
2022/05/19 09:57:38;;;;;;;2.85;2.63;;;;;;;24.10;44.61;101584.69;5025905;28;20088;-65
2022/05/19 10:00:10;;;;;;;5.25;3.10;;;;;;;24.13;44.96;101586.44;4997967;28;20605;-66
2022/05/19 10:02:49;;;;;;;3.63;2.88;;;;;;;24.13;44.53;101586.44;4997096;28;20033;-65
2022/05/19 10:05:42;;;;;;;4.60;3.15;;;;;;;24.14;44.35;101583.84;4995766;28;20043;-67
2022/05/19 10:08:35;;;;;;;2.15;1.92;;;;;;;24.14;44.85;101585.56;5015053;28;20485;-65
2022/05/19 10:11:05;;;;;;;2.58;2.38;;;;;;;24.14;45.09;101581.22;4997370;28;20041;-66
2022/05/19 10:13:46;;;;;;;2.88;2.67;;;;;;;24.12;44.37;101577.69;5030489;28;20033;-65
2022/05/19 10:16:19;;;;;;;2.47;2.30;;;;;;;24.16;44.63;101571.56;5030791;28;20440;-65
2022/05/19 10:19:23;;;;;;;2.40;2.20;;;;;;;24.18;44.36;101575.09;5014294;28;20057;-65
2022/05/19 10:21:51;;;;;;;2.00;1.90;;;;;;;24.19;43.93;101576.88;5023213;28;20033;-65
2022/05/19 10:24:30;;;;;;;3.95;2.80;;;;;;;24.18;44.00;101575.09;5013637;28;20037;-65
2022/05/19 10:32:57;;;;;;;3.30;2.30;;;;;;;24.19;44.31;101566.34;5012258;28;20441;-65
2022/05/19 10:35:55;;;;;;;3.20;2.67;;;;;;;24.17;44.75;101568.06;5000560;28;20033;-66
2022/05/19 10:38:47;;;;;;;2.80;2.47;;;;;;;24.17;44.31;101557.53;5028820;28;20029;-65
2022/05/19 10:41:46;;;;;;;4.22;2.25;;;;;;;24.16;44.05;101566.31;4999351;28;20049;-64
2022/05/19 10:44:22;;;;;;;3.35;2.63;;;;;;;24.14;44.05;101562.78;5001401;28;20121;-64
2022/05/19 10:46:51;;;;;;;4.40;2.50;;;;;;;24.14;44.45;101568.06;4994805;28;20065;-65
2022/05/19 10:49:35;;;;;;;4.72;3.13;;;;;;;24.15;44.20;101559.28;4999902;28;20029;-64
2022/05/19 10:52:06;;;;;;;2.83;2.63;;;;;;;24.15;44.69;101559.28;5015450;28;20540;-64
2022/05/19 10:54:58;;;;;;;3.10;2.80;;;;;;;24.19;44.07;101550.53;4998317;28;20117;-63
2022/05/19 10:57:30;;;;;;;3.42;2.58;;;;;;;24.25;44.04;101554.09;5016216;28;20510;-65
2022/05/19 10:59:58;;;;;;;3.33;3.00;;;;;;;24.25;43.55;101543.56;5012467;28;20125;-65
2022/05/19 11:02:45;;;;;;;3.63;2.95;;;;;;;24.26;44.65;101535.66;5031619;28;20033;-65
2022/05/19 11:05:22;;;;;;;2.30;2.13;;;;;;;24.28;44.48;101533.03;5030632;28;20113;-63
2022/05/19 11:08:18;;;;;;;20.60;2.70;;;;;;;24.34;44.77;101533.09;5022775;28;20747;-60
2022/05/19 11:11:01;;;;;;;4.97;2.50;;;;;;;24.42;43.59;101530.50;5027941;28;20041;-63
2022/05/19 11:13:30;;;;;;;5.63;3.25;;;;;;;24.51;43.69;101526.16;5012662;28;20087;-66
2022/05/19 11:16:14;;;;;;;3.65;2.70;;;;;;;24.62;43.94;101523.59;4997938;28;20095;-65
2022/05/19 11:18:56;;;;;;;4.43;3.17;;;;;;;24.57;44.37;101513.91;5028598;28;20047;-64
2022/05/19 11:21:27;;;;;;;2.90;2.60;;;;;;;24.58;44.77;101520.91;4996135;28;20119;-63
2022/05/19 11:24:21;;;;;;;6.35;2.88;;;;;;;24.69;44.64;101507.81;4999636;28;20033;-74
2022/05/19 11:26:52;;;;;;;6.80;3.35;;;;;;;24.88;45.02;101498.25;5020015;28;20099;-57
2022/05/19 11:29:42;;;;;;;32.55;17.48;;;;;;;25.23;44.85;101515.94;5018123;28;20040;-55
2022/05/19 11:32:22;;;;;;;45.15;27.45;;;;;;;25.32;46.11;101499.22;5030790;28;20045;-57
2022/05/19 11:35:12;;;;;;;54.90;29.30;;;;;;;25.59;44.79;101502.81;4994424;28;20029;-58
2022/05/19 11:37:45;;;;;;;59.63;41.03;;;;;;;25.64;45.84;101504.56;5014415;28;20084;-63
2022/05/19 11:40:16;;;;;;;42.90;27.08;;;;;;;25.85;45.10;101499.28;4985866;28;20421;-66
2022/05/19 11:43:05;;;;;;;27.38;20.67;;;;;;;25.79;44.95;101500.16;5030493;28;20053;-62
2022/05/19 11:45:50;;;;;;;35.60;16.42;;;;;;;25.77;45.82;101486.09;4993894;28;20486;-65
2022/05/19 11:57:29;;;;;;;3.75;3.38;;;;;;;25.44;44.91;101466.72;5016628;28;20059;-62
2022/05/19 12:00:00;;;;;;;6.10;3.78;;;;;;;25.28;44.78;101456.19;5058185;22;20115;-61
2022/05/19 12:02:35;;;;;;;5.03;3.95;;;;;;;25.17;45.18;101456.16;4999410;28;20041;-69
2022/05/19 12:05:10;;;;;;;3.63;3.20;;;;;;;25.12;45.48;101454.41;4988924;28;20033;-63